sensor_id;sensor_type;location;lat;lon;timestamp;temperature;humidity
40059;SHT31;25763;49.972;8.568;2022-07-05T00:01:50;18.75;58.38
40059;SHT31;25763;49.972;8.568;2022-07-05T00:04:15;18.73;57.96
40059;SHT31;25763;49.972;8.568;2022-07-05T00:06:40;18.71;58.46
40059;SHT31;25763;49.972;8.568;2022-07-05T00:09:26;18.71;58.11
40059;SHT31;25763;49.972;8.568;2022-07-05T00:11:51;18.69;57.89
40059;SHT31;25763;49.972;8.568;2022-07-05T00:14:16;18.67;57.93
40059;SHT31;25763;49.972;8.568;2022-07-05T00:16:42;18.64;58.12
40059;SHT31;25763;49.972;8.568;2022-07-05T00:19:07;18.61;58.36
40059;SHT31;25763;49.972;8.568;2022-07-05T00:21:33;18.59;58.13
40059;SHT31;25763;49.972;8.568;2022-07-05T00:23:58;18.59;58.23
40059;SHT31;25763;49.972;8.568;2022-07-05T00:26:23;18.57;58.29
40059;SHT31;25763;49.972;8.568;2022-07-05T00:28:49;18.54;58.47
40059;SHT31;25763;49.972;8.568;2022-07-05T00:31:14;18.50;58.59
40059;SHT31;25763;49.972;8.568;2022-07-05T00:33:39;18.51;58.86
40059;SHT31;25763;49.972;8.568;2022-07-05T00:36:05;18.48;58.99
40059;SHT31;25763;49.972;8.568;2022-07-05T00:38:30;18.48;59.61
40059;SHT31;25763;49.972;8.568;2022-07-05T00:40:55;18.16;61.92
40059;SHT31;25763;49.972;8.568;2022-07-05T00:43:21;17.73;63.63
40059;SHT31;25763;49.972;8.568;2022-07-05T00:45:46;17.30;64.93
40059;SHT31;25763;49.972;8.568;2022-07-05T00:48:11;17.01;65.48
40059;SHT31;25763;49.972;8.568;2022-07-05T00:50:38;16.95;65.54
40059;SHT31;25763;49.972;8.568;2022-07-05T00:53:04;16.83;65.22
40059;SHT31;25763;49.972;8.568;2022-07-05T00:55:29;16.63;66.07
40059;SHT31;25763;49.972;8.568;2022-07-05T00:57:54;16.40;66.90
40059;SHT31;25763;49.972;8.568;2022-07-05T01:00:20;16.26;66.92
40059;SHT31;25763;49.972;8.568;2022-07-05T01:02:45;16.15;66.87
40059;SHT31;25763;49.972;8.568;2022-07-05T01:05:11;16.40;65.91
40059;SHT31;25763;49.972;8.568;2022-07-05T01:07:36;16.61;65.36
40059;SHT31;25763;49.972;8.568;2022-07-05T01:10:02;16.80;64.88
40059;SHT31;25763;49.972;8.568;2022-07-05T01:12:28;16.92;64.55
40059;SHT31;25763;49.972;8.568;2022-07-05T01:14:54;17.02;64.39
40059;SHT31;25763;49.972;8.568;2022-07-05T01:17:20;17.08;64.21
40059;SHT31;25763;49.972;8.568;2022-07-05T01:19:46;17.15;64.00
40059;SHT31;25763;49.972;8.568;2022-07-05T01:22:16;17.19;63.86
40059;SHT31;25763;49.972;8.568;2022-07-05T01:24:43;17.18;63.70
40059;SHT31;25763;49.972;8.568;2022-07-05T01:27:08;17.20;63.50
40059;SHT31;25763;49.972;8.568;2022-07-05T01:29:34;17.22;63.33
40059;SHT31;25763;49.972;8.568;2022-07-05T01:31:59;17.20;63.85
40059;SHT31;25763;49.972;8.568;2022-07-05T01:34:24;16.75;64.91
40059;SHT31;25763;49.972;8.568;2022-07-05T01:36:50;16.32;65.98
40059;SHT31;25763;49.972;8.568;2022-07-05T01:39:15;16.05;67.13
40059;SHT31;25763;49.972;8.568;2022-07-05T01:41:41;15.70;68.40
40059;SHT31;25763;49.972;8.568;2022-07-05T01:44:06;15.51;69.15
40059;SHT31;25763;49.972;8.568;2022-07-05T01:46:32;15.30;70.10
40059;SHT31;25763;49.972;8.568;2022-07-05T01:49:00;15.38;69.29
40059;SHT31;25763;49.972;8.568;2022-07-05T01:51:33;15.48;68.78
40059;SHT31;25763;49.972;8.568;2022-07-05T01:53:59;15.46;68.91
40059;SHT31;25763;49.972;8.568;2022-07-05T01:56:24;15.58;68.77
40059;SHT31;25763;49.972;8.568;2022-07-05T01:58:51;15.73;68.48
40059;SHT31;25763;49.972;8.568;2022-07-05T02:01:31;15.90;67.70
40059;SHT31;25763;49.972;8.568;2022-07-05T02:03:57;16.01;67.59
40059;SHT31;25763;49.972;8.568;2022-07-05T02:06:22;16.04;67.30
40059;SHT31;25763;49.972;8.568;2022-07-05T02:08:48;16.07;67.24
40059;SHT31;25763;49.972;8.568;2022-07-05T02:11:13;16.03;67.09
40059;SHT31;25763;49.972;8.568;2022-07-05T02:13:38;15.84;68.17
40059;SHT31;25763;49.972;8.568;2022-07-05T02:16:04;15.83;68.14
40059;SHT31;25763;49.972;8.568;2022-07-05T02:18:29;15.67;68.74
40059;SHT31;25763;49.972;8.568;2022-07-05T02:20:55;15.63;69.12
40059;SHT31;25763;49.972;8.568;2022-07-05T02:23:20;15.45;69.69
40059;SHT31;25763;49.972;8.568;2022-07-05T02:25:45;15.53;69.04
40059;SHT31;25763;49.972;8.568;2022-07-05T02:28:11;15.39;70.11
40059;SHT31;25763;49.972;8.568;2022-07-05T02:30:36;15.14;71.43
40059;SHT31;25763;49.972;8.568;2022-07-05T02:33:01;15.06;71.59
40059;SHT31;25763;49.972;8.568;2022-07-05T02:35:27;14.92;71.93
40059;SHT31;25763;49.972;8.568;2022-07-05T02:37:52;14.90;71.84
40059;SHT31;25763;49.972;8.568;2022-07-05T02:40:17;14.96;71.63
40059;SHT31;25763;49.972;8.568;2022-07-05T02:42:43;14.99;71.22
40059;SHT31;25763;49.972;8.568;2022-07-05T02:45:08;14.82;71.99
40059;SHT31;25763;49.972;8.568;2022-07-05T02:47:34;14.62;72.92
40059;SHT31;25763;49.972;8.568;2022-07-05T02:50:07;14.52;73.32
40059;SHT31;25763;49.972;8.568;2022-07-05T02:52:33;14.72;72.36
40059;SHT31;25763;49.972;8.568;2022-07-05T02:54:59;14.93;71.58
40059;SHT31;25763;49.972;8.568;2022-07-05T02:57:24;15.11;70.88
40059;SHT31;25763;49.972;8.568;2022-07-05T02:59:52;15.22;70.28
40059;SHT31;25763;49.972;8.568;2022-07-05T03:02:18;15.34;70.10
40059;SHT31;25763;49.972;8.568;2022-07-05T03:04:43;15.45;70.27
40059;SHT31;25763;49.972;8.568;2022-07-05T03:07:09;15.52;70.08
40059;SHT31;25763;49.972;8.568;2022-07-05T03:09:34;15.59;70.19
40059;SHT31;25763;49.972;8.568;2022-07-05T03:11:59;15.66;69.66
40059;SHT31;25763;49.972;8.568;2022-07-05T03:14:25;15.70;69.50
40059;SHT31;25763;49.972;8.568;2022-07-05T03:16:50;15.52;69.51
40059;SHT31;25763;49.972;8.568;2022-07-05T03:19:15;15.04;70.88
40059;SHT31;25763;49.972;8.568;2022-07-05T03:21:41;14.82;71.64
40059;SHT31;25763;49.972;8.568;2022-07-05T03:24:07;14.73;71.77
40059;SHT31;25763;49.972;8.568;2022-07-05T03:26:33;14.58;72.25
40059;SHT31;25763;49.972;8.568;2022-07-05T03:28:58;14.45;72.68
40059;SHT31;25763;49.972;8.568;2022-07-05T03:31:23;14.34;72.84
40059;SHT31;25763;49.972;8.568;2022-07-05T03:33:49;14.33;73.13
40059;SHT31;25763;49.972;8.568;2022-07-05T03:36:14;14.20;73.55
40059;SHT31;25763;49.972;8.568;2022-07-05T03:38:39;14.34;72.79
40059;SHT31;25763;49.972;8.568;2022-07-05T03:41:05;14.48;72.31
40059;SHT31;25763;49.972;8.568;2022-07-05T03:43:30;14.26;73.35
40059;SHT31;25763;49.972;8.568;2022-07-05T03:45:55;13.98;74.22
40059;SHT31;25763;49.972;8.568;2022-07-05T03:48:21;13.95;74.60
40059;SHT31;25763;49.972;8.568;2022-07-05T03:50:46;13.99;74.50
40059;SHT31;25763;49.972;8.568;2022-07-05T03:53:12;13.95;74.76
40059;SHT31;25763;49.972;8.568;2022-07-05T03:55:37;13.96;74.64
40059;SHT31;25763;49.972;8.568;2022-07-05T03:58:03;14.05;74.34
40059;SHT31;25763;49.972;8.568;2022-07-05T04:00:29;14.06;74.33
40059;SHT31;25763;49.972;8.568;2022-07-05T04:02:54;14.08;74.53
40059;SHT31;25763;49.972;8.568;2022-07-05T04:05:19;14.20;73.90
40059;SHT31;25763;49.972;8.568;2022-07-05T04:07:52;14.37;73.49
40059;SHT31;25763;49.972;8.568;2022-07-05T04:10:17;14.59;72.95
40059;SHT31;25763;49.972;8.568;2022-07-05T04:12:43;14.76;72.66
40059;SHT31;25763;49.972;8.568;2022-07-05T04:15:09;14.92;71.94
40059;SHT31;25763;49.972;8.568;2022-07-05T04:17:34;15.03;71.77
40059;SHT31;25763;49.972;8.568;2022-07-05T04:20:00;15.10;71.73
40059;SHT31;25763;49.972;8.568;2022-07-05T04:22:25;15.11;71.51
40059;SHT31;25763;49.972;8.568;2022-07-05T04:24:50;15.22;71.58
40059;SHT31;25763;49.972;8.568;2022-07-05T04:27:55;15.34;71.66
40059;SHT31;25763;49.972;8.568;2022-07-05T04:30:22;15.41;71.39
40059;SHT31;25763;49.972;8.568;2022-07-05T04:32:48;15.42;70.78
40059;SHT31;25763;49.972;8.568;2022-07-05T04:35:14;15.39;70.05
40059;SHT31;25763;49.972;8.568;2022-07-05T04:37:39;15.49;70.20
40059;SHT31;25763;49.972;8.568;2022-07-05T04:40:07;15.58;70.06
40059;SHT31;25763;49.972;8.568;2022-07-05T04:42:33;15.62;69.94
40059;SHT31;25763;49.972;8.568;2022-07-05T04:44:59;15.70;69.83
40059;SHT31;25763;49.972;8.568;2022-07-05T04:47:24;15.77;69.52
40059;SHT31;25763;49.972;8.568;2022-07-05T04:49:53;15.84;69.39
40059;SHT31;25763;49.972;8.568;2022-07-05T04:52:19;15.91;69.34
40059;SHT31;25763;49.972;8.568;2022-07-05T04:54:44;16.03;69.12
40059;SHT31;25763;49.972;8.568;2022-07-05T04:57:10;16.08;69.12
40059;SHT31;25763;49.972;8.568;2022-07-05T04:59:35;16.10;69.59
40059;SHT31;25763;49.972;8.568;2022-07-05T05:02:01;16.17;69.10
40059;SHT31;25763;49.972;8.568;2022-07-05T05:04:26;16.20;68.75
40059;SHT31;25763;49.972;8.568;2022-07-05T05:06:51;16.28;69.27
40059;SHT31;25763;49.972;8.568;2022-07-05T05:09:17;16.39;68.61
40059;SHT31;25763;49.972;8.568;2022-07-05T05:11:42;16.46;68.38
40059;SHT31;25763;49.972;8.568;2022-07-05T05:14:07;16.59;68.34
40059;SHT31;25763;49.972;8.568;2022-07-05T05:16:33;16.67;68.61
40059;SHT31;25763;49.972;8.568;2022-07-05T05:18:58;16.78;67.40
40059;SHT31;25763;49.972;8.568;2022-07-05T05:21:23;16.84;68.04
40059;SHT31;25763;49.972;8.568;2022-07-05T05:23:49;16.92;66.83
40059;SHT31;25763;49.972;8.568;2022-07-05T05:26:14;17.08;67.33
40059;SHT31;25763;49.972;8.568;2022-07-05T05:28:39;17.18;67.35
40059;SHT31;25763;49.972;8.568;2022-07-05T05:31:05;17.33;67.21
40059;SHT31;25763;49.972;8.568;2022-07-05T05:33:30;17.49;66.65
40059;SHT31;25763;49.972;8.568;2022-07-05T05:35:56;17.65;65.95
40059;SHT31;25763;49.972;8.568;2022-07-05T05:38:21;17.75;65.17
40059;SHT31;25763;49.972;8.568;2022-07-05T05:40:47;17.84;65.40
40059;SHT31;25763;49.972;8.568;2022-07-05T05:43:12;17.79;63.25
40059;SHT31;25763;49.972;8.568;2022-07-05T05:45:38;17.95;63.15
40059;SHT31;25763;49.972;8.568;2022-07-05T05:48:04;18.17;62.34
40059;SHT31;25763;49.972;8.568;2022-07-05T05:50:37;18.28;61.78
40059;SHT31;25763;49.972;8.568;2022-07-05T05:53:06;18.43;61.64
40059;SHT31;25763;49.972;8.568;2022-07-05T05:55:31;18.64;61.33
40059;SHT31;25763;49.972;8.568;2022-07-05T05:58:13;18.72;61.16
40059;SHT31;25763;49.972;8.568;2022-07-05T06:00:39;18.75;60.46
40059;SHT31;25763;49.972;8.568;2022-07-05T06:03:04;18.71;60.12
40059;SHT31;25763;49.972;8.568;2022-07-05T06:05:29;18.87;60.43
40059;SHT31;25763;49.972;8.568;2022-07-05T06:07:56;19.10;60.49
40059;SHT31;25763;49.972;8.568;2022-07-05T06:10:27;19.15;59.48
40059;SHT31;25763;49.972;8.568;2022-07-05T06:12:53;19.18;59.35
40059;SHT31;25763;49.972;8.568;2022-07-05T06:15:19;19.48;60.74
40059;SHT31;25763;49.972;8.568;2022-07-05T06:17:45;19.28;58.06
40059;SHT31;25763;49.972;8.568;2022-07-05T06:20:13;19.49;58.18
40059;SHT31;25763;49.972;8.568;2022-07-05T06:22:39;19.58;57.99
40059;SHT31;25763;49.972;8.568;2022-07-05T06:25:05;19.67;56.80
40059;SHT31;25763;49.972;8.568;2022-07-05T06:27:30;19.73;56.76
40059;SHT31;25763;49.972;8.568;2022-07-05T06:29:56;19.52;57.05
40059;SHT31;25763;49.972;8.568;2022-07-05T06:32:21;19.77;57.22
40059;SHT31;25763;49.972;8.568;2022-07-05T06:34:47;20.08;58.20
40059;SHT31;25763;49.972;8.568;2022-07-05T06:37:12;19.98;56.77
40059;SHT31;25763;49.972;8.568;2022-07-05T06:39:37;20.18;55.85
40059;SHT31;25763;49.972;8.568;2022-07-05T06:42:03;20.24;56.23
40059;SHT31;25763;49.972;8.568;2022-07-05T06:44:28;20.35;56.40
40059;SHT31;25763;49.972;8.568;2022-07-05T06:46:53;20.67;56.34
40059;SHT31;25763;49.972;8.568;2022-07-05T06:49:19;21.01;56.42
40059;SHT31;25763;49.972;8.568;2022-07-05T06:51:44;21.28;56.40
40059;SHT31;25763;49.972;8.568;2022-07-05T06:54:09;21.35;54.16
40059;SHT31;25763;49.972;8.568;2022-07-05T06:56:35;21.45;53.88
40059;SHT31;25763;49.972;8.568;2022-07-05T06:59:00;21.35;54.60
40059;SHT31;25763;49.972;8.568;2022-07-05T07:01:26;21.75;55.72
40059;SHT31;25763;49.972;8.568;2022-07-05T07:03:51;21.94;54.95
40059;SHT31;25763;49.972;8.568;2022-07-05T07:06:16;21.81;52.42
40059;SHT31;25763;49.972;8.568;2022-07-05T07:08:42;22.10;53.45
40059;SHT31;25763;49.972;8.568;2022-07-05T07:11:26;22.17;53.46
40059;SHT31;25763;49.972;8.568;2022-07-05T07:13:52;22.27;52.42
40059;SHT31;25763;49.972;8.568;2022-07-05T07:16:17;22.17;51.70
40059;SHT31;25763;49.972;8.568;2022-07-05T07:18:42;22.37;51.60
40059;SHT31;25763;49.972;8.568;2022-07-05T07:21:08;22.37;51.21
40059;SHT31;25763;49.972;8.568;2022-07-05T07:23:33;22.58;51.96
40059;SHT31;25763;49.972;8.568;2022-07-05T07:25:58;22.89;52.92
40059;SHT31;25763;49.972;8.568;2022-07-05T07:28:24;23.15;50.51
40059;SHT31;25763;49.972;8.568;2022-07-05T07:30:49;23.30;50.87
40059;SHT31;25763;49.972;8.568;2022-07-05T07:33:15;23.28;49.98
40059;SHT31;25763;49.972;8.568;2022-07-05T07:35:40;23.23;49.61
40059;SHT31;25763;49.972;8.568;2022-07-05T07:38:05;23.27;48.36
40059;SHT31;25763;49.972;8.568;2022-07-05T07:40:31;23.54;50.61
40059;SHT31;25763;49.972;8.568;2022-07-05T07:42:56;23.75;48.62
40059;SHT31;25763;49.972;8.568;2022-07-05T07:45:22;23.82;49.78
40059;SHT31;25763;49.972;8.568;2022-07-05T07:47:47;24.00;48.73
40059;SHT31;25763;49.972;8.568;2022-07-05T07:50:12;24.51;49.17
40059;SHT31;25763;49.972;8.568;2022-07-05T07:52:38;24.29;47.51
40059;SHT31;25763;49.972;8.568;2022-07-05T07:55:05;24.03;48.13
40059;SHT31;25763;49.972;8.568;2022-07-05T07:57:30;23.86;49.49
40059;SHT31;25763;49.972;8.568;2022-07-05T07:59:56;23.37;48.81
40059;SHT31;25763;49.972;8.568;2022-07-05T08:02:21;23.63;49.66
40059;SHT31;25763;49.972;8.568;2022-07-05T08:04:51;23.83;49.06
40059;SHT31;25763;49.972;8.568;2022-07-05T08:07:16;24.00;49.30
40059;SHT31;25763;49.972;8.568;2022-07-05T08:09:43;24.04;48.09
40059;SHT31;25763;49.972;8.568;2022-07-05T08:12:08;24.22;48.68
40059;SHT31;25763;49.972;8.568;2022-07-05T08:14:34;24.27;47.49
40059;SHT31;25763;49.972;8.568;2022-07-05T08:16:59;24.10;46.19
40059;SHT31;25763;49.972;8.568;2022-07-05T08:19:25;24.25;49.04
40059;SHT31;25763;49.972;8.568;2022-07-05T08:22:09;24.44;48.69
40059;SHT31;25763;49.972;8.568;2022-07-05T08:24:36;24.47;48.01
40059;SHT31;25763;49.972;8.568;2022-07-05T08:27:02;24.44;47.74
40059;SHT31;25763;49.972;8.568;2022-07-05T08:29:27;24.40;47.07
40059;SHT31;25763;49.972;8.568;2022-07-05T08:31:53;24.69;47.01
40059;SHT31;25763;49.972;8.568;2022-07-05T08:34:19;24.87;46.17
40059;SHT31;25763;49.972;8.568;2022-07-05T08:36:45;24.97;44.62
40059;SHT31;25763;49.972;8.568;2022-07-05T08:39:11;24.87;44.39
40059;SHT31;25763;49.972;8.568;2022-07-05T08:41:39;25.00;44.88
40059;SHT31;25763;49.972;8.568;2022-07-05T08:44:05;25.06;43.68
40059;SHT31;25763;49.972;8.568;2022-07-05T08:46:32;25.04;43.35
40059;SHT31;25763;49.972;8.568;2022-07-05T08:49:02;25.25;43.08
40059;SHT31;25763;49.972;8.568;2022-07-05T08:51:32;25.42;43.87
40059;SHT31;25763;49.972;8.568;2022-07-05T08:53:58;25.69;42.73
40059;SHT31;25763;49.972;8.568;2022-07-05T08:56:23;25.56;42.53
40059;SHT31;25763;49.972;8.568;2022-07-05T08:58:49;25.55;42.76
40059;SHT31;25763;49.972;8.568;2022-07-05T09:01:15;25.67;41.75
40059;SHT31;25763;49.972;8.568;2022-07-05T09:03:50;26.01;42.23
40059;SHT31;25763;49.972;8.568;2022-07-05T09:06:21;26.17;40.78
40059;SHT31;25763;49.972;8.568;2022-07-05T09:08:48;26.36;41.79
40059;SHT31;25763;49.972;8.568;2022-07-05T09:11:15;26.29;40.42
40059;SHT31;25763;49.972;8.568;2022-07-05T09:13:51;26.32;38.77
40059;SHT31;25763;49.972;8.568;2022-07-05T09:16:16;26.32;37.17
40059;SHT31;25763;49.972;8.568;2022-07-05T09:18:47;26.38;38.78
40059;SHT31;25763;49.972;8.568;2022-07-05T09:21:14;26.20;39.92
40059;SHT31;25763;49.972;8.568;2022-07-05T09:23:40;25.61;40.65
40059;SHT31;25763;49.972;8.568;2022-07-05T09:26:05;25.79;42.28
40059;SHT31;25763;49.972;8.568;2022-07-05T09:28:31;25.61;40.49
40059;SHT31;25763;49.972;8.568;2022-07-05T09:30:56;25.80;41.15
40059;SHT31;25763;49.972;8.568;2022-07-05T09:33:21;26.01;40.48
40059;SHT31;25763;49.972;8.568;2022-07-05T09:35:56;26.36;39.82
40059;SHT31;25763;49.972;8.568;2022-07-05T09:38:26;26.68;40.03
40059;SHT31;25763;49.972;8.568;2022-07-05T09:40:57;26.70;38.63
40059;SHT31;25763;49.972;8.568;2022-07-05T09:43:25;26.87;39.94
40059;SHT31;25763;49.972;8.568;2022-07-05T09:48:21;26.39;39.31
40059;SHT31;25763;49.972;8.568;2022-07-05T09:50:48;26.46;39.65
40059;SHT31;25763;49.972;8.568;2022-07-05T09:53:13;26.77;39.03
40059;SHT31;25763;49.972;8.568;2022-07-05T09:55:39;27.15;38.61
40059;SHT31;25763;49.972;8.568;2022-07-05T09:58:06;27.38;38.32
40059;SHT31;25763;49.972;8.568;2022-07-05T10:00:31;27.45;37.43
40059;SHT31;25763;49.972;8.568;2022-07-05T10:02:57;27.60;36.53
40059;SHT31;25763;49.972;8.568;2022-07-05T10:05:32;27.80;35.84
40059;SHT31;25763;49.972;8.568;2022-07-05T10:08:01;28.09;37.00
40059;SHT31;25763;49.972;8.568;2022-07-05T10:10:31;27.67;36.51
40059;SHT31;25763;49.972;8.568;2022-07-05T10:13:01;27.70;36.32
40059;SHT31;25763;49.972;8.568;2022-07-05T10:15:30;28.09;38.50
40059;SHT31;25763;49.972;8.568;2022-07-05T10:18:09;28.19;36.90
40059;SHT31;25763;49.972;8.568;2022-07-05T10:23:03;28.19;35.94
40059;SHT31;25763;49.972;8.568;2022-07-05T10:25:29;27.78;37.21
40059;SHT31;25763;49.972;8.568;2022-07-05T10:27:57;28.05;37.02
40059;SHT31;25763;49.972;8.568;2022-07-05T10:30:23;28.37;34.68
40059;SHT31;25763;49.972;8.568;2022-07-05T10:32:49;28.67;33.27
40059;SHT31;25763;49.972;8.568;2022-07-05T10:35:16;28.60;35.95
40059;SHT31;25763;49.972;8.568;2022-07-05T10:37:42;29.02;36.65
40059;SHT31;25763;49.972;8.568;2022-07-05T10:40:09;29.00;32.90
40059;SHT31;25763;49.972;8.568;2022-07-05T10:42:45;29.30;33.38
40059;SHT31;25763;49.972;8.568;2022-07-05T10:48:17;29.51;35.16
40059;SHT31;25763;49.972;8.568;2022-07-05T10:50:44;28.51;33.75
40059;SHT31;25763;49.972;8.568;2022-07-05T10:53:09;28.40;33.33
40059;SHT31;25763;49.972;8.568;2022-07-05T10:55:56;28.37;33.16
40059;SHT31;25763;49.972;8.568;2022-07-05T10:58:26;28.61;33.77
40059;SHT31;25763;49.972;8.568;2022-07-05T11:11:43;29.04;31.40
40059;SHT31;25763;49.972;8.568;2022-07-05T11:16:48;28.81;29.56
40059;SHT31;25763;49.972;8.568;2022-07-05T11:19:16;28.58;29.89
40059;SHT31;25763;49.972;8.568;2022-07-05T11:22:06;28.76;31.61
40059;SHT31;25763;49.972;8.568;2022-07-05T11:24:36;28.81;31.06
40059;SHT31;25763;49.972;8.568;2022-07-05T11:27:03;29.07;31.91
40059;SHT31;25763;49.972;8.568;2022-07-05T11:29:47;29.41;32.70
40059;SHT31;25763;49.972;8.568;2022-07-05T11:32:19;29.34;32.64
40059;SHT31;25763;49.972;8.568;2022-07-05T11:34:50;29.63;32.26
40059;SHT31;25763;49.972;8.568;2022-07-05T11:39:41;29.17;32.85
40059;SHT31;25763;49.972;8.568;2022-07-05T11:42:08;29.55;32.80
40059;SHT31;25763;49.972;8.568;2022-07-05T11:44:37;29.81;31.51
40059;SHT31;25763;49.972;8.568;2022-07-05T11:47:05;29.72;30.63
40059;SHT31;25763;49.972;8.568;2022-07-05T11:49:31;29.65;31.67
40059;SHT31;25763;49.972;8.568;2022-07-05T11:51:59;29.54;32.18
40059;SHT31;25763;49.972;8.568;2022-07-05T11:54:33;29.58;32.46
40059;SHT31;25763;49.972;8.568;2022-07-05T11:56:59;29.72;33.82
40059;SHT31;25763;49.972;8.568;2022-07-05T11:59:26;29.81;32.98
40059;SHT31;25763;49.972;8.568;2022-07-05T12:01:52;29.44;32.78
40059;SHT31;25763;49.972;8.568;2022-07-05T12:04:22;29.66;32.92
40059;SHT31;25763;49.972;8.568;2022-07-05T12:06:48;29.93;32.45
40059;SHT31;25763;49.972;8.568;2022-07-05T12:09:14;30.11;32.89
40059;SHT31;25763;49.972;8.568;2022-07-05T12:11:49;29.92;30.56
40059;SHT31;25763;49.972;8.568;2022-07-05T12:14:33;30.06;29.83
40059;SHT31;25763;49.972;8.568;2022-07-05T12:17:16;29.68;32.03
40059;SHT31;25763;49.972;8.568;2022-07-05T12:19:41;29.73;30.86
40059;SHT31;25763;49.972;8.568;2022-07-05T12:22:07;29.96;30.90
40059;SHT31;25763;49.972;8.568;2022-07-05T12:24:33;29.99;32.27
40059;SHT31;25763;49.972;8.568;2022-07-05T12:26:59;29.55;31.97
40059;SHT31;25763;49.972;8.568;2022-07-05T12:29:25;29.13;33.05
40059;SHT31;25763;49.972;8.568;2022-07-05T12:32:00;28.85;32.77
40059;SHT31;25763;49.972;8.568;2022-07-05T12:34:26;29.06;33.14
40059;SHT31;25763;49.972;8.568;2022-07-05T12:36:51;29.68;32.18
40059;SHT31;25763;49.972;8.568;2022-07-05T12:39:17;29.75;32.90
40059;SHT31;25763;49.972;8.568;2022-07-05T12:41:43;30.03;31.76
40059;SHT31;25763;49.972;8.568;2022-07-05T12:44:08;29.75;32.13
40059;SHT31;25763;49.972;8.568;2022-07-05T12:46:38;29.23;32.79
40059;SHT31;25763;49.972;8.568;2022-07-05T12:49:04;29.13;32.45
40059;SHT31;25763;49.972;8.568;2022-07-05T12:51:34;29.41;31.93
40059;SHT31;25763;49.972;8.568;2022-07-05T12:54:00;29.93;32.25
40059;SHT31;25763;49.972;8.568;2022-07-05T12:56:51;29.03;33.21
40059;SHT31;25763;49.972;8.568;2022-07-05T12:59:36;29.41;31.84
40059;SHT31;25763;49.972;8.568;2022-07-05T13:02:03;29.76;32.03
40059;SHT31;25763;49.972;8.568;2022-07-05T13:04:29;29.79;30.89
40059;SHT31;25763;49.972;8.568;2022-07-05T13:06:57;30.24;31.30
40059;SHT31;25763;49.972;8.568;2022-07-05T13:12:19;30.90;30.46
40059;SHT31;25763;49.972;8.568;2022-07-05T13:14:52;30.55;31.34
40059;SHT31;25763;49.972;8.568;2022-07-05T13:17:20;29.63;30.84
40059;SHT31;25763;49.972;8.568;2022-07-05T13:19:46;29.92;31.24
40059;SHT31;25763;49.972;8.568;2022-07-05T13:22:12;30.62;31.90
40059;SHT31;25763;49.972;8.568;2022-07-05T13:24:38;31.06;30.79
40059;SHT31;25763;49.972;8.568;2022-07-05T13:27:05;31.03;29.58
40059;SHT31;25763;49.972;8.568;2022-07-05T13:29:31;30.83;30.96
40059;SHT31;25763;49.972;8.568;2022-07-05T13:31:56;31.24;30.84
40059;SHT31;25763;49.972;8.568;2022-07-05T13:34:22;31.12;31.72
40059;SHT31;25763;49.972;8.568;2022-07-05T13:36:54;30.49;30.93
40059;SHT31;25763;49.972;8.568;2022-07-05T13:39:22;29.85;30.31
40059;SHT31;25763;49.972;8.568;2022-07-05T13:41:52;29.51;30.89
40059;SHT31;25763;49.972;8.568;2022-07-05T13:44:18;29.35;30.31
40059;SHT31;25763;49.972;8.568;2022-07-05T13:46:44;28.81;32.26
40059;SHT31;25763;49.972;8.568;2022-07-05T13:49:09;28.60;30.70
40059;SHT31;25763;49.972;8.568;2022-07-05T13:51:34;28.45;31.12
40059;SHT31;25763;49.972;8.568;2022-07-05T13:54:00;28.57;31.72
40059;SHT31;25763;49.972;8.568;2022-07-05T13:56:26;29.51;31.61
40059;SHT31;25763;49.972;8.568;2022-07-05T13:58:53;29.92;29.38
40059;SHT31;25763;49.972;8.568;2022-07-05T14:01:18;30.10;29.99
40059;SHT31;25763;49.972;8.568;2022-07-05T14:03:46;30.01;30.12
40059;SHT31;25763;49.972;8.568;2022-07-05T14:06:11;30.31;30.11
40059;SHT31;25763;49.972;8.568;2022-07-05T14:08:36;30.45;29.60
40059;SHT31;25763;49.972;8.568;2022-07-05T14:11:02;30.93;30.72
40059;SHT31;25763;49.972;8.568;2022-07-05T14:13:27;31.43;29.48
40059;SHT31;25763;49.972;8.568;2022-07-05T14:15:54;31.62;28.55
40059;SHT31;25763;49.972;8.568;2022-07-05T14:18:20;31.55;28.25
40059;SHT31;25763;49.972;8.568;2022-07-05T14:20:46;30.65;28.77
40059;SHT31;25763;49.972;8.568;2022-07-05T14:23:13;30.38;28.27
40059;SHT31;25763;49.972;8.568;2022-07-05T14:25:42;30.41;28.88
40059;SHT31;25763;49.972;8.568;2022-07-05T14:28:07;30.47;28.65
40059;SHT31;25763;49.972;8.568;2022-07-05T14:30:39;30.28;30.34
40059;SHT31;25763;49.972;8.568;2022-07-05T14:33:05;30.32;30.19
40059;SHT31;25763;49.972;8.568;2022-07-05T14:35:31;29.63;29.66
40059;SHT31;25763;49.972;8.568;2022-07-05T14:37:57;30.03;30.19
40059;SHT31;25763;49.972;8.568;2022-07-05T14:40:24;30.34;29.31
40059;SHT31;25763;49.972;8.568;2022-07-05T14:42:50;30.63;30.57
40059;SHT31;25763;49.972;8.568;2022-07-05T14:45:16;30.70;29.60
40059;SHT31;25763;49.972;8.568;2022-07-05T14:47:41;30.17;30.20
40059;SHT31;25763;49.972;8.568;2022-07-05T14:50:07;30.07;31.49
40059;SHT31;25763;49.972;8.568;2022-07-05T14:52:32;30.10;31.66
40059;SHT31;25763;49.972;8.568;2022-07-05T14:54:57;29.94;31.01
40059;SHT31;25763;49.972;8.568;2022-07-05T14:57:23;29.57;31.65
40059;SHT31;25763;49.972;8.568;2022-07-05T14:59:48;29.70;31.97
40059;SHT31;25763;49.972;8.568;2022-07-05T15:02:13;29.45;33.02
40059;SHT31;25763;49.972;8.568;2022-07-05T15:04:43;29.40;32.02
40059;SHT31;25763;49.972;8.568;2022-07-05T15:07:08;29.34;32.76
40059;SHT31;25763;49.972;8.568;2022-07-05T15:09:33;29.02;32.77
40059;SHT31;25763;49.972;8.568;2022-07-05T15:11:59;28.72;33.27
40059;SHT31;25763;49.972;8.568;2022-07-05T15:14:24;28.65;33.52
40059;SHT31;25763;49.972;8.568;2022-07-05T15:16:53;28.64;33.76
40059;SHT31;25763;49.972;8.568;2022-07-05T15:19:19;28.64;33.51
40059;SHT31;25763;49.972;8.568;2022-07-05T15:21:44;28.43;32.64
40059;SHT31;25763;49.972;8.568;2022-07-05T15:24:10;28.55;34.13
40059;SHT31;25763;49.972;8.568;2022-07-05T15:26:35;28.74;33.35
40059;SHT31;25763;49.972;8.568;2022-07-05T15:29:06;28.45;33.82
40059;SHT31;25763;49.972;8.568;2022-07-05T15:31:32;28.69;33.80
40059;SHT31;25763;49.972;8.568;2022-07-05T15:33:58;28.72;34.75
40059;SHT31;25763;49.972;8.568;2022-07-05T15:36:24;28.72;35.41
40059;SHT31;25763;49.972;8.568;2022-07-05T15:38:51;28.41;35.71
40059;SHT31;25763;49.972;8.568;2022-07-05T15:41:16;28.34;35.22
40059;SHT31;25763;49.972;8.568;2022-07-05T15:43:42;28.50;34.55
40059;SHT31;25763;49.972;8.568;2022-07-05T15:46:07;28.89;34.41
40059;SHT31;25763;49.972;8.568;2022-07-05T15:48:32;28.98;33.78
40059;SHT31;25763;49.972;8.568;2022-07-05T15:50:58;29.68;34.87
40059;SHT31;25763;49.972;8.568;2022-07-05T15:53:29;30.14;33.40
40059;SHT31;25763;49.972;8.568;2022-07-05T15:55:55;30.29;34.26